sensor_id;sensor_type;location;lat;lon;timestamp;pressure;altitude;pressure_sealevel;temperature;humidity
72677;BME280;60755;51.374;10.662;2023-07-16T00:00:32;96806.84;;;19.38;100.00
72677;BME280;60755;51.374;10.662;2023-07-16T00:02:59;96801.28;;;19.48;100.00
72677;BME280;60755;51.374;10.662;2023-07-16T00:05:29;96797.66;;;19.44;100.00
72677;BME280;60755;51.374;10.662;2023-07-16T00:07:56;96796.19;;;19.38;100.00
72677;BME280;60755;51.374;10.662;2023-07-16T00:10:24;96794.78;;;19.40;100.00
72677;BME280;60755;51.374;10.662;2023-07-16T00:12:51;96783.06;;;19.41;100.00
72677;BME280;60755;51.374;10.662;2023-07-16T00:15:18;96771.00;;;19.44;100.00
72677;BME280;60755;51.374;10.662;2023-07-16T00:17:45;96755.69;;;19.49;100.00
72677;BME280;60755;51.374;10.662;2023-07-16T00:20:12;96759.50;;;19.35;100.00
72677;BME280;60755;51.374;10.662;2023-07-16T00:22:39;96791.81;;;19.19;100.00
72677;BME280;60755;51.374;10.662;2023-07-16T00:25:07;96803.63;;;19.27;100.00
72677;BME280;60755;51.374;10.662;2023-07-16T00:27:35;96801.56;;;19.24;100.00
72677;BME280;60755;51.374;10.662;2023-07-16T00:30:03;96784.97;;;19.27;100.00
72677;BME280;60755;51.374;10.662;2023-07-16T00:32:30;96780.13;;;19.29;100.00
72677;BME280;60755;51.374;10.662;2023-07-16T00:34:57;96786.56;;;19.28;100.00
72677;BME280;60755;51.374;10.662;2023-07-16T00:37:24;96786.19;;;19.21;100.00
72677;BME280;60755;51.374;10.662;2023-07-16T00:39:51;96791.41;;;19.26;100.00
72677;BME280;60755;51.374;10.662;2023-07-16T00:42:18;96788.38;;;19.19;100.00
72677;BME280;60755;51.374;10.662;2023-07-16T00:44:46;96795.75;;;19.22;100.00
72677;BME280;60755;51.374;10.662;2023-07-16T00:47:13;96780.06;;;19.20;100.00
72677;BME280;60755;51.374;10.662;2023-07-16T00:49:40;96791.25;;;19.31;100.00
72677;BME280;60755;51.374;10.662;2023-07-16T00:52:12;96812.81;;;19.21;100.00
72677;BME280;60755;51.374;10.662;2023-07-16T00:54:42;96805.22;;;19.14;100.00
72677;BME280;60755;51.374;10.662;2023-07-16T00:57:09;96800.34;;;19.30;100.00
72677;BME280;60755;51.374;10.662;2023-07-16T00:59:36;96780.38;;;19.19;100.00
72677;BME280;60755;51.374;10.662;2023-07-16T01:02:05;96781.03;;;19.24;100.00
72677;BME280;60755;51.374;10.662;2023-07-16T01:04:32;96775.09;;;19.27;100.00
72677;BME280;60755;51.374;10.662;2023-07-16T01:07:01;96773.94;;;19.20;100.00
72677;BME280;60755;51.374;10.662;2023-07-16T01:09:32;96774.25;;;19.18;100.00
72677;BME280;60755;51.374;10.662;2023-07-16T01:12:03;96769.19;;;19.17;100.00
72677;BME280;60755;51.374;10.662;2023-07-16T01:14:32;96773.94;;;19.20;100.00
72677;BME280;60755;51.374;10.662;2023-07-16T01:17:02;96772.47;;;19.14;100.00
72677;BME280;60755;51.374;10.662;2023-07-16T01:19:31;96770.53;;;19.06;100.00
72677;BME280;60755;51.374;10.662;2023-07-16T01:22:08;96769.28;;;18.89;100.00
72677;BME280;60755;51.374;10.662;2023-07-16T01:24:53;96790.59;;;18.89;100.00
72677;BME280;60755;51.374;10.662;2023-07-16T01:27:39;96762.00;;;18.95;100.00
72677;BME280;60755;51.374;10.662;2023-07-16T01:30:15;96746.97;;;18.99;100.00
72677;BME280;60755;51.374;10.662;2023-07-16T01:32:44;96741.06;;;19.02;100.00
72677;BME280;60755;51.374;10.662;2023-07-16T01:35:12;96751.75;;;18.88;100.00
72677;BME280;60755;51.374;10.662;2023-07-16T01:37:41;96750.97;;;18.88;100.00
72677;BME280;60755;51.374;10.662;2023-07-16T01:40:08;96771.06;;;18.94;100.00
72677;BME280;60755;51.374;10.662;2023-07-16T01:42:36;96742.31;;;19.05;100.00
72677;BME280;60755;51.374;10.662;2023-07-16T01:45:04;96711.75;;;19.02;100.00
72677;BME280;60755;51.374;10.662;2023-07-16T01:47:40;96713.13;;;18.99;100.00
72677;BME280;60755;51.374;10.662;2023-07-16T01:50:11;96690.72;;;19.00;100.00
72677;BME280;60755;51.374;10.662;2023-07-16T01:52:38;96686.44;;;18.91;100.00
72677;BME280;60755;51.374;10.662;2023-07-16T01:55:06;96690.88;;;18.95;100.00
72677;BME280;60755;51.374;10.662;2023-07-16T01:57:33;96705.28;;;18.94;100.00
72677;BME280;60755;51.374;10.662;2023-07-16T02:00:00;96718.38;;;18.91;100.00
72677;BME280;60755;51.374;10.662;2023-07-16T02:02:30;96729.44;;;18.84;100.00
72677;BME280;60755;51.374;10.662;2023-07-16T02:04:58;96737.16;;;18.86;100.00
72677;BME280;60755;51.374;10.662;2023-07-16T02:07:25;96752.69;;;18.92;100.00
72677;BME280;60755;51.374;10.662;2023-07-16T02:09:55;96760.34;;;18.85;100.00
72677;BME280;60755;51.374;10.662;2023-07-16T02:12:22;96765.38;;;18.87;100.00
72677;BME280;60755;51.374;10.662;2023-07-16T02:14:49;96764.38;;;18.83;100.00
72677;BME280;60755;51.374;10.662;2023-07-16T02:17:16;96776.56;;;18.97;100.00
72677;BME280;60755;51.374;10.662;2023-07-16T02:19:43;96774.38;;;18.99;100.00
72677;BME280;60755;51.374;10.662;2023-07-16T02:22:11;96753.31;;;18.89;100.00
72677;BME280;60755;51.374;10.662;2023-07-16T02:24:38;96747.97;;;18.89;100.00
72677;BME280;60755;51.374;10.662;2023-07-16T02:27:05;96761.41;;;18.84;100.00
72677;BME280;60755;51.374;10.662;2023-07-16T02:29:32;96757.28;;;18.78;100.00
72677;BME280;60755;51.374;10.662;2023-07-16T02:31:59;96758.25;;;18.82;100.00
72677;BME280;60755;51.374;10.662;2023-07-16T02:34:26;96747.84;;;18.72;100.00
72677;BME280;60755;51.374;10.662;2023-07-16T02:36:53;96727.00;;;18.74;100.00
72677;BME280;60755;51.374;10.662;2023-07-16T02:39:22;96737.16;;;18.86;100.00
72677;BME280;60755;51.374;10.662;2023-07-16T02:41:49;96729.69;;;18.74;100.00
72677;BME280;60755;51.374;10.662;2023-07-16T02:44:17;96753.94;;;18.72;100.00
72677;BME280;60755;51.374;10.662;2023-07-16T02:46:44;96752.06;;;18.73;100.00
72677;BME280;60755;51.374;10.662;2023-07-16T02:49:11;96770.69;;;18.73;100.00
72677;BME280;60755;51.374;10.662;2023-07-16T02:51:38;96762.91;;;18.63;100.00
72677;BME280;60755;51.374;10.662;2023-07-16T02:54:05;96774.94;;;18.74;100.00
72677;BME280;60755;51.374;10.662;2023-07-16T02:56:33;96781.13;;;18.83;100.00
72677;BME280;60755;51.374;10.662;2023-07-16T02:59:00;96786.59;;;18.78;100.00
72677;BME280;60755;51.374;10.662;2023-07-16T03:01:27;96785.66;;;18.83;100.00
72677;BME280;60755;51.374;10.662;2023-07-16T03:03:55;96786.84;;;18.90;100.00
72677;BME280;60755;51.374;10.662;2023-07-16T03:06:22;96789.63;;;18.85;100.00
72677;BME280;60755;51.374;10.662;2023-07-16T03:08:50;96792.28;;;18.85;100.00
72677;BME280;60755;51.374;10.662;2023-07-16T03:11:18;96808.38;;;18.80;100.00
72677;BME280;60755;51.374;10.662;2023-07-16T03:13:46;96825.91;;;18.81;99.52
72677;BME280;60755;51.374;10.662;2023-07-16T03:16:13;96819.88;;;18.62;100.00
72677;BME280;60755;51.374;10.662;2023-07-16T03:18:40;96816.84;;;18.55;100.00
72677;BME280;60755;51.374;10.662;2023-07-16T03:21:07;96816.22;;;18.58;100.00
72677;BME280;60755;51.374;10.662;2023-07-16T03:23:35;96825.31;;;18.57;100.00
72677;BME280;60755;51.374;10.662;2023-07-16T03:26:02;96834.56;;;18.59;100.00
72677;BME280;60755;51.374;10.662;2023-07-16T03:28:29;96830.63;;;18.57;100.00
72677;BME280;60755;51.374;10.662;2023-07-16T03:30:58;96845.22;;;18.45;100.00
72677;BME280;60755;51.374;10.662;2023-07-16T03:33:25;96838.22;;;18.63;99.93
72677;BME280;60755;51.374;10.662;2023-07-16T03:35:52;96848.56;;;18.65;99.66
72677;BME280;60755;51.374;10.662;2023-07-16T03:38:19;96855.50;;;18.66;100.00
72677;BME280;60755;51.374;10.662;2023-07-16T03:40:47;96857.47;;;18.74;98.58
72677;BME280;60755;51.374;10.662;2023-07-16T03:43:15;96859.22;;;18.65;98.56
72677;BME280;60755;51.374;10.662;2023-07-16T03:45:42;96863.41;;;18.71;98.13
72677;BME280;60755;51.374;10.662;2023-07-16T03:48:10;96860.81;;;18.80;97.79
72677;BME280;60755;51.374;10.662;2023-07-16T03:50:37;96859.72;;;18.67;96.59
72677;BME280;60755;51.374;10.662;2023-07-16T03:53:04;96875.00;;;18.75;97.60
72677;BME280;60755;51.374;10.662;2023-07-16T03:55:32;96886.06;;;18.82;96.56
72677;BME280;60755;51.374;10.662;2023-07-16T03:57:59;96888.63;;;19.01;94.63
72677;BME280;60755;51.374;10.662;2023-07-16T04:00:26;96893.97;;;20.09;89.25
72677;BME280;60755;51.374;10.662;2023-07-16T04:02:53;96891.72;;;20.03;88.28
72677;BME280;60755;51.374;10.662;2023-07-16T04:05:22;96909.06;;;19.69;89.35
72677;BME280;60755;51.374;10.662;2023-07-16T04:07:49;96910.28;;;19.49;89.70
72677;BME280;60755;51.374;10.662;2023-07-16T04:10:16;96903.22;;;19.04;93.32
72677;BME280;60755;51.374;10.662;2023-07-16T04:12:43;96915.16;;;18.92;93.65
72677;BME280;60755;51.374;10.662;2023-07-16T04:15:10;96920.56;;;18.73;94.29
72677;BME280;60755;51.374;10.662;2023-07-16T04:17:37;96923.16;;;18.79;94.87
72677;BME280;60755;51.374;10.662;2023-07-16T04:20:05;96918.78;;;19.24;93.46
72677;BME280;60755;51.374;10.662;2023-07-16T04:22:34;96928.09;;;20.66;87.33
72677;BME280;60755;51.374;10.662;2023-07-16T04:25:02;96932.22;;;21.20;82.18
72677;BME280;60755;51.374;10.662;2023-07-16T04:27:29;96936.34;;;21.27;81.26
72677;BME280;60755;51.374;10.662;2023-07-16T04:29:56;96939.59;;;22.24;75.68
72677;BME280;60755;51.374;10.662;2023-07-16T04:32:23;96945.69;;;23.06;74.18
72677;BME280;60755;51.374;10.662;2023-07-16T04:34:50;96954.09;;;23.55;71.96
72677;BME280;60755;51.374;10.662;2023-07-16T04:37:17;96954.94;;;23.76;69.96
72677;BME280;60755;51.374;10.662;2023-07-16T04:39:45;96950.28;;;22.97;70.50
72677;BME280;60755;51.374;10.662;2023-07-16T04:42:12;96950.31;;;23.26;68.95
72677;BME280;60755;51.374;10.662;2023-07-16T04:44:39;96956.34;;;24.36;67.97
72677;BME280;60755;51.374;10.662;2023-07-16T04:47:06;96957.94;;;24.95;65.45
72677;BME280;60755;51.374;10.662;2023-07-16T04:49:34;96963.28;;;24.82;63.30
72677;BME280;60755;51.374;10.662;2023-07-16T04:52:01;96959.19;;;25.09;63.18
72677;BME280;60755;51.374;10.662;2023-07-16T04:54:28;96969.22;;;25.98;59.69
72677;BME280;60755;51.374;10.662;2023-07-16T04:56:57;96963.59;;;25.14;62.47
72677;BME280;60755;51.374;10.662;2023-07-16T04:59:23;96961.09;;;25.58;59.54
72677;BME280;60755;51.374;10.662;2023-07-16T05:01:50;96965.25;;;25.67;61.25
72677;BME280;60755;51.374;10.662;2023-07-16T05:04:17;96954.22;;;25.85;60.39
72677;BME280;60755;51.374;10.662;2023-07-16T05:06:44;96963.28;;;26.76;56.38
72677;BME280;60755;51.374;10.662;2023-07-16T05:09:11;96958.50;;;27.01;56.11
72677;BME280;60755;51.374;10.662;2023-07-16T05:11:38;96965.16;;;27.04;56.96
72677;BME280;60755;51.374;10.662;2023-07-16T05:14:07;96970.63;;;27.08;56.97
72677;BME280;60755;51.374;10.662;2023-07-16T05:16:34;96973.59;;;27.18;54.55
72677;BME280;60755;51.374;10.662;2023-07-16T05:19:00;96978.56;;;27.83;53.42
72677;BME280;60755;51.374;10.662;2023-07-16T05:21:27;96986.00;;;27.70;52.85
72677;BME280;60755;51.374;10.662;2023-07-16T05:23:54;96975.69;;;29.64;50.99
72677;BME280;60755;51.374;10.662;2023-07-16T05:26:21;96986.22;;;30.63;47.52
72677;BME280;60755;51.374;10.662;2023-07-16T05:28:48;96994.28;;;30.93;46.63
72677;BME280;60755;51.374;10.662;2023-07-16T05:31:17;96986.75;;;31.16;44.29
72677;BME280;60755;51.374;10.662;2023-07-16T05:33:44;96996.22;;;32.93;42.11
72677;BME280;60755;51.374;10.662;2023-07-16T05:36:11;97007.06;;;32.75;42.36
72677;BME280;60755;51.374;10.662;2023-07-16T05:38:38;97002.50;;;33.61;40.93
72677;BME280;60755;51.374;10.662;2023-07-16T05:41:05;97014.50;;;33.82;39.32
72677;BME280;60755;51.374;10.662;2023-07-16T05:43:32;97010.81;;;34.53;37.34
72677;BME280;60755;51.374;10.662;2023-07-16T05:45:59;97025.03;;;33.12;39.89
72677;BME280;60755;51.374;10.662;2023-07-16T05:48:28;97023.34;;;34.36;37.91
72677;BME280;60755;51.374;10.662;2023-07-16T05:50:55;97030.19;;;35.35;37.74
72677;BME280;60755;51.374;10.662;2023-07-16T05:53:21;97030.91;;;34.87;36.36
72677;BME280;60755;51.374;10.662;2023-07-16T05:55:48;97042.22;;;33.70;37.65
72677;BME280;60755;51.374;10.662;2023-07-16T05:58:17;97028.00;;;34.49;37.43
72677;BME280;60755;51.374;10.662;2023-07-16T06:00:44;97036.09;;;34.64;36.04
72677;BME280;60755;51.374;10.662;2023-07-16T06:03:11;97030.97;;;34.73;36.81
72677;BME280;60755;51.374;10.662;2023-07-16T06:05:39;97040.13;;;35.15;37.56
72677;BME280;60755;51.374;10.662;2023-07-16T06:08:06;97033.94;;;35.03;35.86
72677;BME280;60755;51.374;10.662;2023-07-16T06:10:34;97038.72;;;33.55;37.19
72677;BME280;60755;51.374;10.662;2023-07-16T06:13:01;97041.44;;;33.62;36.82
72677;BME280;60755;51.374;10.662;2023-07-16T06:15:28;97039.50;;;31.15;40.90
72677;BME280;60755;51.374;10.662;2023-07-16T06:17:55;97046.09;;;33.65;39.05
72677;BME280;60755;51.374;10.662;2023-07-16T06:20:22;97042.47;;;32.75;39.41
72677;BME280;60755;51.374;10.662;2023-07-16T06:22:50;97045.28;;;32.13;39.20
72677;BME280;60755;51.374;10.662;2023-07-16T06:25:17;97056.56;;;31.16;42.07
72677;BME280;60755;51.374;10.662;2023-07-16T06:27:44;97061.16;;;29.85;47.47
72677;BME280;60755;51.374;10.662;2023-07-16T06:30:11;97049.00;;;31.80;42.47
72677;BME280;60755;51.374;10.662;2023-07-16T06:32:38;97052.22;;;34.33;38.23
72677;BME280;60755;51.374;10.662;2023-07-16T06:35:06;97051.91;;;33.81;37.81
72677;BME280;60755;51.374;10.662;2023-07-16T06:37:33;97053.22;;;35.41;35.82
72677;BME280;60755;51.374;10.662;2023-07-16T06:40:01;97043.44;;;35.85;34.33
72677;BME280;60755;51.374;10.662;2023-07-16T06:42:29;97042.38;;;35.75;33.40
72677;BME280;60755;51.374;10.662;2023-07-16T06:44:56;97055.44;;;33.96;37.55
72677;BME280;60755;51.374;10.662;2023-07-16T06:47:23;97047.66;;;33.62;36.32
72677;BME280;60755;51.374;10.662;2023-07-16T06:49:50;97052.66;;;35.05;34.01
72677;BME280;60755;51.374;10.662;2023-07-16T06:52:20;97057.06;;;31.69;37.08
72677;BME280;60755;51.374;10.662;2023-07-16T06:54:48;97066.31;;;33.18;35.67
72677;BME280;60755;51.374;10.662;2023-07-16T06:57:16;97063.94;;;32.11;38.96
72677;BME280;60755;51.374;10.662;2023-07-16T06:59:43;97061.69;;;33.54;35.28
72677;BME280;60755;51.374;10.662;2023-07-16T07:02:11;97058.09;;;32.09;37.76
72677;BME280;60755;51.374;10.662;2023-07-16T07:04:38;97067.13;;;33.47;36.81
72677;BME280;60755;51.374;10.662;2023-07-16T07:07:06;97067.31;;;35.32;32.82
72677;BME280;60755;51.374;10.662;2023-07-16T07:09:33;97067.06;;;33.07;36.49
72677;BME280;60755;51.374;10.662;2023-07-16T07:12:00;97053.56;;;35.92;33.08
72677;BME280;60755;51.374;10.662;2023-07-16T07:14:29;97071.44;;;33.55;34.39
72677;BME280;60755;51.374;10.662;2023-07-16T07:16:57;97063.50;;;35.23;33.39
72677;BME280;60755;51.374;10.662;2023-07-16T07:19:24;97063.28;;;36.34;31.42
72677;BME280;60755;51.374;10.662;2023-07-16T07:21:51;97061.94;;;35.74;31.60
72677;BME280;60755;51.374;10.662;2023-07-16T07:24:18;97053.19;;;37.46;29.72
72677;BME280;60755;51.374;10.662;2023-07-16T07:26:45;97054.59;;;34.13;32.70
72677;BME280;60755;51.374;10.662;2023-07-16T07:29:12;97053.56;;;34.81;32.96
72677;BME280;60755;51.374;10.662;2023-07-16T07:31:40;97047.84;;;35.27;31.63
72677;BME280;60755;51.374;10.662;2023-07-16T07:34:07;97043.72;;;35.56;31.32
72677;BME280;60755;51.374;10.662;2023-07-16T07:36:34;97048.75;;;36.71;31.32
72677;BME280;60755;51.374;10.662;2023-07-16T07:39:01;97052.53;;;36.81;30.93
72677;BME280;60755;51.374;10.662;2023-07-16T07:41:28;97055.84;;;33.52;33.00
72677;BME280;60755;51.374;10.662;2023-07-16T07:43:55;97060.94;;;29.97;36.99
72677;BME280;60755;51.374;10.662;2023-07-16T07:46:22;97061.88;;;28.16;42.00
72677;BME280;60755;51.374;10.662;2023-07-16T07:48:51;97067.03;;;27.70;42.46
72677;BME280;60755;51.374;10.662;2023-07-16T07:51:18;97066.66;;;27.56;42.82
72677;BME280;60755;51.374;10.662;2023-07-16T07:53:45;97073.91;;;26.64;45.57
72677;BME280;60755;51.374;10.662;2023-07-16T07:56:12;97068.31;;;27.13;44.09
72677;BME280;60755;51.374;10.662;2023-07-16T07:58:38;97085.53;;;26.81;46.55
72677;BME280;60755;51.374;10.662;2023-07-16T08:01:06;97075.56;;;26.69;45.83
72677;BME280;60755;51.374;10.662;2023-07-16T08:03:34;97073.66;;;26.69;47.22
72677;BME280;60755;51.374;10.662;2023-07-16T08:06:02;97065.41;;;26.78;44.92
72677;BME280;60755;51.374;10.662;2023-07-16T08:08:29;97079.13;;;27.01;44.25
72677;BME280;60755;51.374;10.662;2023-07-16T08:10:56;97080.44;;;27.19;44.69
72677;BME280;60755;51.374;10.662;2023-07-16T08:13:23;97077.38;;;27.21;45.21
72677;BME280;60755;51.374;10.662;2023-07-16T08:15:50;97086.59;;;27.20;46.17
72677;BME280;60755;51.374;10.662;2023-07-16T08:18:17;97097.41;;;27.20;46.60
72677;BME280;60755;51.374;10.662;2023-07-16T08:20:44;97097.06;;;26.01;45.94
72677;BME280;60755;51.374;10.662;2023-07-16T08:23:14;97097.13;;;26.29;47.99
72677;BME280;60755;51.374;10.662;2023-07-16T08:25:42;97096.38;;;25.79;47.82
72677;BME280;60755;51.374;10.662;2023-07-16T08:28:09;97102.19;;;25.45;45.98
72677;BME280;60755;51.374;10.662;2023-07-16T08:30:37;97093.28;;;26.30;45.16
72677;BME280;60755;51.374;10.662;2023-07-16T08:33:04;97101.53;;;26.73;45.19
72677;BME280;60755;51.374;10.662;2023-07-16T08:35:31;97096.28;;;26.00;45.50
72677;BME280;60755;51.374;10.662;2023-07-16T08:37:58;97092.41;;;26.26;46.05
72677;BME280;60755;51.374;10.662;2023-07-16T08:40:26;97101.66;;;25.88;46.39
72677;BME280;60755;51.374;10.662;2023-07-16T08:42:55;97103.69;;;25.91;45.12
72677;BME280;60755;51.374;10.662;2023-07-16T08:45:25;97103.94;;;24.95;45.81
72677;BME280;60755;51.374;10.662;2023-07-16T08:47:54;97096.69;;;25.65;47.36
72677;BME280;60755;51.374;10.662;2023-07-16T08:50:22;97092.72;;;26.36;46.21
72677;BME280;60755;51.374;10.662;2023-07-16T08:52:51;97106.03;;;26.17;45.14
72677;BME280;60755;51.374;10.662;2023-07-16T08:55:19;97098.72;;;25.69;42.58
72677;BME280;60755;51.374;10.662;2023-07-16T08:57:48;97106.59;;;25.74;45.72
72677;BME280;60755;51.374;10.662;2023-07-16T09:00:15;97097.94;;;25.68;43.79
72677;BME280;60755;51.374;10.662;2023-07-16T09:02:43;97097.84;;;25.07;42.63
72677;BME280;60755;51.374;10.662;2023-07-16T09:05:10;97105.91;;;25.07;45.13
72677;BME280;60755;51.374;10.662;2023-07-16T09:07:38;97113.28;;;25.10;45.63
72677;BME280;60755;51.374;10.662;2023-07-16T09:10:06;97118.38;;;25.12;44.74
72677;BME280;60755;51.374;10.662;2023-07-16T09:12:33;97112.91;;;24.99;44.81
72677;BME280;60755;51.374;10.662;2023-07-16T09:15:02;97112.22;;;24.90;45.53
72677;BME280;60755;51.374;10.662;2023-07-16T09:17:29;97112.72;;;24.83;45.06
72677;BME280;60755;51.374;10.662;2023-07-16T09:19:57;97112.97;;;24.78;45.36
72677;BME280;60755;51.374;10.662;2023-07-16T09:22:24;97120.44;;;24.73;48.11
72677;BME280;60755;51.374;10.662;2023-07-16T09:24:55;97119.75;;;24.76;47.27
72677;BME280;60755;51.374;10.662;2023-07-16T09:27:28;97116.72;;;24.98;45.92
72677;BME280;60755;51.374;10.662;2023-07-16T09:29:55;97124.88;;;24.90;47.94
72677;BME280;60755;51.374;10.662;2023-07-16T09:32:32;97119.44;;;25.44;45.62
72677;BME280;60755;51.374;10.662;2023-07-16T09:34:59;97122.03;;;25.52;45.95
72677;BME280;60755;51.374;10.662;2023-07-16T09:37:27;97110.03;;;25.50;46.03
72677;BME280;60755;51.374;10.662;2023-07-16T09:39:54;97109.47;;;25.44;45.55
72677;BME280;60755;51.374;10.662;2023-07-16T09:42:21;97128.00;;;25.13;44.59
72677;BME280;60755;51.374;10.662;2023-07-16T09:44:51;97110.91;;;25.29;45.22
72677;BME280;60755;51.374;10.662;2023-07-16T09:47:19;97122.31;;;25.26;43.37
72677;BME280;60755;51.374;10.662;2023-07-16T09:49:48;97116.81;;;25.23;43.66
72677;BME280;60755;51.374;10.662;2023-07-16T09:52:15;97125.81;;;25.39;44.74
72677;BME280;60755;51.374;10.662;2023-07-16T09:54:44;97118.63;;;25.31;44.55
72677;BME280;60755;51.374;10.662;2023-07-16T09:57:13;97117.25;;;25.13;43.60
72677;BME280;60755;51.374;10.662;2023-07-16T09:59:41;97113.88;;;25.16;45.43
72677;BME280;60755;51.374;10.662;2023-07-16T10:02:08;97126.69;;;24.98;44.77
72677;BME280;60755;51.374;10.662;2023-07-16T10:04:39;97129.81;;;25.00;42.60
72677;BME280;60755;51.374;10.662;2023-07-16T10:07:19;97132.78;;;24.86;43.93
72677;BME280;60755;51.374;10.662;2023-07-16T10:09:51;97128.16;;;24.74;42.74
72677;BME280;60755;51.374;10.662;2023-07-16T10:12:20;97119.38;;;24.65;41.67
72677;BME280;60755;51.374;10.662;2023-07-16T10:14:48;97124.69;;;24.53;42.30
72677;BME280;60755;51.374;10.662;2023-07-16T10:17:17;97132.88;;;24.77;42.49
72677;BME280;60755;51.374;10.662;2023-07-16T10:19:49;97117.38;;;24.95;45.06
72677;BME280;60755;51.374;10.662;2023-07-16T10:22:18;97128.16;;;24.95;41.43
72677;BME280;60755;51.374;10.662;2023-07-16T10:24:52;97121.16;;;25.03;42.37
72677;BME280;60755;51.374;10.662;2023-07-16T10:27:27;97126.81;;;25.01;42.72
72677;BME280;60755;51.374;10.662;2023-07-16T10:29:54;97130.25;;;24.90;41.95
72677;BME280;60755;51.374;10.662;2023-07-16T10:32:21;97129.13;;;25.12;43.96
72677;BME280;60755;51.374;10.662;2023-07-16T10:34:50;97120.50;;;25.18;43.49
72677;BME280;60755;51.374;10.662;2023-07-16T10:37:18;97126.81;;;25.01;43.71
72677;BME280;60755;51.374;10.662;2023-07-16T10:39:46;97124.94;;;24.81;43.74
72677;BME280;60755;51.374;10.662;2023-07-16T10:42:13;97127.22;;;24.91;44.64
72677;BME280;60755;51.374;10.662;2023-07-16T10:44:43;97138.63;;;25.09;43.30
72677;BME280;60755;51.374;10.662;2023-07-16T10:47:18;97128.75;;;25.46;43.18
72677;BME280;60755;51.374;10.662;2023-07-16T10:49:46;97133.44;;;25.37;41.73
72677;BME280;60755;51.374;10.662;2023-07-16T10:52:13;97136.69;;;25.30;41.94
72677;BME280;60755;51.374;10.662;2023-07-16T10:54:42;97134.69;;;25.06;40.67
72677;BME280;60755;51.374;10.662;2023-07-16T10:57:10;97148.31;;;25.01;43.32
72677;BME280;60755;51.374;10.662;2023-07-16T10:59:38;97143.03;;;25.14;42.78
72677;BME280;60755;51.374;10.662;2023-07-16T11:02:08;97129.72;;;24.96;42.59
72677;BME280;60755;51.374;10.662;2023-07-16T11:04:36;97144.59;;;24.94;42.41
72677;BME280;60755;51.374;10.662;2023-07-16T11:07:06;97136.53;;;25.15;42.67
72677;BME280;60755;51.374;10.662;2023-07-16T11:09:39;97138.59;;;25.30;42.94
72677;BME280;60755;51.374;10.662;2023-07-16T11:12:10;97128.31;;;25.44;42.89
72677;BME280;60755;51.374;10.662;2023-07-16T11:14:38;97128.22;;;25.53;42.45
72677;BME280;60755;51.374;10.662;2023-07-16T11:17:06;97133.22;;;25.30;42.73
72677;BME280;60755;51.374;10.662;2023-07-16T11:19:34;97131.00;;;25.44;42.66
72677;BME280;60755;51.374;10.662;2023-07-16T11:22:02;97128.88;;;25.04;42.41
72677;BME280;60755;51.374;10.662;2023-07-16T11:24:36;97134.16;;;25.13;42.95
72677;BME280;60755;51.374;10.662;2023-07-16T11:27:05;97133.38;;;25.13;42.50
72677;BME280;60755;51.374;10.662;2023-07-16T11:29:37;97135.91;;;25.30;41.02
72677;BME280;60755;51.374;10.662;2023-07-16T11:32:05;97136.41;;;25.11;42.11
72677;BME280;60755;51.374;10.662;2023-07-16T11:34:32;97139.25;;;25.27;43.78
72677;BME280;60755;51.374;10.662;2023-07-16T11:37:09;97138.88;;;25.16;40.58
72677;BME280;60755;51.374;10.662;2023-07-16T11:39:36;97136.34;;;25.32;40.60
72677;BME280;60755;51.374;10.662;2023-07-16T11:42:04;97134.97;;;25.14;39.88
72677;BME280;60755;51.374;10.662;2023-07-16T11:44:34;97139.63;;;25.37;39.98
72677;BME280;60755;51.374;10.662;2023-07-16T11:47:03;97141.00;;;25.56;42.78
72677;BME280;60755;51.374;10.662;2023-07-16T11:49:30;97140.53;;;25.66;41.25
72677;BME280;60755;51.374;10.662;2023-07-16T11:51:58;97133.44;;;25.37;40.61
72677;BME280;60755;51.374;10.662;2023-07-16T11:54:25;97141.28;;;25.42;41.21
72677;BME280;60755;51.374;10.662;2023-07-16T11:56:52;97145.72;;;25.59;41.67
72677;BME280;60755;51.374;10.662;2023-07-16T11:59:19;97133.59;;;25.53;39.81
72677;BME280;60755;51.374;10.662;2023-07-16T12:01:47;97134.69;;;24.86;40.43
72677;BME280;60755;51.374;10.662;2023-07-16T12:04:17;97127.34;;;25.16;40.29
72677;BME280;60755;51.374;10.662;2023-07-16T12:06:44;97128.03;;;25.25;40.61
72677;BME280;60755;51.374;10.662;2023-07-16T12:09:11;97138.97;;;25.07;41.39
72677;BME280;60755;51.374;10.662;2023-07-16T12:11:38;97145.09;;;25.41;41.71
72677;BME280;60755;51.374;10.662;2023-07-16T12:14:05;97135.16;;;25.66;41.78
72677;BME280;60755;51.374;10.662;2023-07-16T12:16:32;97131.34;;;25.55;42.10
72677;BME280;60755;51.374;10.662;2023-07-16T12:18:59;97137.16;;;25.57;39.85
72677;BME280;60755;51.374;10.662;2023-07-16T12:21:28;97134.16;;;25.71;40.78
72677;BME280;60755;51.374;10.662;2023-07-16T12:23:55;97119.41;;;25.77;40.37
72677;BME280;60755;51.374;10.662;2023-07-16T12:26:22;97129.44;;;25.55;40.69
72677;BME280;60755;51.374;10.662;2023-07-16T12:28:49;97133.88;;;25.27;39.30
72677;BME280;60755;51.374;10.662;2023-07-16T12:31:16;97140.69;;;25.70;40.34
72677;BME280;60755;51.374;10.662;2023-07-16T12:33:43;97145.47;;;25.52;38.69
72677;BME280;60755;51.374;10.662;2023-07-16T12:36:10;97143.09;;;24.84;40.00
72677;BME280;60755;51.374;10.662;2023-07-16T12:38:39;97147.72;;;24.63;43.05
72677;BME280;60755;51.374;10.662;2023-07-16T12:41:06;97143.75;;;24.81;41.74
72677;BME280;60755;51.374;10.662;2023-07-16T12:43:34;97139.63;;;25.04;42.60
72677;BME280;60755;51.374;10.662;2023-07-16T12:46:01;97144.50;;;25.02;42.17
72677;BME280;60755;51.374;10.662;2023-07-16T12:48:29;97131.34;;;25.09;42.06
72677;BME280;60755;51.374;10.662;2023-07-16T12:50:56;97143.44;;;25.36;41.99